X  Fechar Metar - Info de Aeroporto     LPMT Montijo Air Base
Temperatura
22°C Temperatura
9°C Ptº Orvalho
44% Humidade



Vento
9 MPH
14 KM/H
4 M/S
8 NÓS



320°
NO
Condições Atuais

Muito Nublado Muito Nublado
Pressão 1013.88 (hPa) - 29.94 (inHg)
Visibilidade 6 (milha) - 9.7 (km)
Aeroporto
Código-Aeroporto LPMT

Localização: Montijo Air Base
Distância: 6 (mi)

Metar:
LPMT 181500Z 32008KT 270V360 9999 BKN045 22/09 Q1014

Hora: 2024-05-18 16:00 WEST